sensor_id;sensor_type;location;lat;lon;timestamp;pressure;altitude;pressure_sealevel;temperature;humidity
3796;BME280;1913;50.660;7.834;2023-02-20T00:00:30;98178.50;;;5.06;100.00
3796;BME280;1913;50.660;7.834;2023-02-20T00:02:57;98176.75;;;4.96;100.00
3796;BME280;1913;50.660;7.834;2023-02-20T00:05:22;98167.50;;;5.12;100.00
3796;BME280;1913;50.660;7.834;2023-02-20T00:07:48;98158.84;;;5.11;100.00
3796;BME280;1913;50.660;7.834;2023-02-20T00:10:15;98168.78;;;4.98;100.00
3796;BME280;1913;50.660;7.834;2023-02-20T00:12:40;98166.22;;;4.88;100.00
3796;BME280;1913;50.660;7.834;2023-02-20T00:15:06;98163.88;;;4.95;100.00
3796;BME280;1913;50.660;7.834;2023-02-20T00:17:32;98155.13;;;4.86;100.00
3796;BME280;1913;50.660;7.834;2023-02-20T00:19:58;98149.94;;;4.76;100.00
3796;BME280;1913;50.660;7.834;2023-02-20T00:22:25;98153.25;;;4.69;100.00
3796;BME280;1913;50.660;7.834;2023-02-20T00:24:51;98135.06;;;4.59;100.00
3796;BME280;1913;50.660;7.834;2023-02-20T00:27:17;98129.56;;;4.62;100.00
3796;BME280;1913;50.660;7.834;2023-02-20T00:29:43;98140.03;;;4.52;100.00
3796;BME280;1913;50.660;7.834;2023-02-20T00:32:09;98147.69;;;4.54;100.00
3796;BME280;1913;50.660;7.834;2023-02-20T00:34:35;98135.66;;;4.43;100.00
3796;BME280;1913;50.660;7.834;2023-02-20T00:37:00;98136.22;;;4.27;100.00
3796;BME280;1913;50.660;7.834;2023-02-20T00:39:26;98127.06;;;4.23;100.00
3796;BME280;1913;50.660;7.834;2023-02-20T00:41:51;98133.47;;;4.19;100.00
3796;BME280;1913;50.660;7.834;2023-02-20T00:44:17;98133.91;;;4.15;100.00
3796;BME280;1913;50.660;7.834;2023-02-20T00:46:42;98141.44;;;4.18;100.00
3796;BME280;1913;50.660;7.834;2023-02-20T00:49:08;98138.84;;;4.08;100.00
3796;BME280;1913;50.660;7.834;2023-02-20T00:51:33;98130.66;;;4.03;100.00
3796;BME280;1913;50.660;7.834;2023-02-20T00:54:03;98128.72;;;4.05;100.00
3796;BME280;1913;50.660;7.834;2023-02-20T00:56:29;98132.13;;;4.05;100.00
3796;BME280;1913;50.660;7.834;2023-02-20T00:58:54;98128.59;;;3.97;100.00
3796;BME280;1913;50.660;7.834;2023-02-20T01:01:20;98126.09;;;4.05;100.00
3796;BME280;1913;50.660;7.834;2023-02-20T01:03:46;98125.56;;;4.11;100.00
3796;BME280;1913;50.660;7.834;2023-02-20T01:06:12;98120.09;;;4.04;100.00
3796;BME280;1913;50.660;7.834;2023-02-20T01:08:37;98121.44;;;4.08;100.00
3796;BME280;1913;50.660;7.834;2023-02-20T01:11:02;98123.78;;;4.02;100.00
3796;BME280;1913;50.660;7.834;2023-02-20T01:13:28;98122.03;;;4.02;100.00
3796;BME280;1913;50.660;7.834;2023-02-20T01:15:53;98116.94;;;4.11;100.00
3796;BME280;1913;50.660;7.834;2023-02-20T01:18:19;98112.81;;;4.08;100.00
3796;BME280;1913;50.660;7.834;2023-02-20T01:20:44;98112.16;;;4.06;100.00
3796;BME280;1913;50.660;7.834;2023-02-20T01:23:10;98111.63;;;4.02;100.00
3796;BME280;1913;50.660;7.834;2023-02-20T01:25:35;98106.81;;;4.07;100.00
3796;BME280;1913;50.660;7.834;2023-02-20T01:28:01;98110.38;;;4.06;100.00
3796;BME280;1913;50.660;7.834;2023-02-20T01:30:26;98109.81;;;4.13;100.00
3796;BME280;1913;50.660;7.834;2023-02-20T01:32:52;98106.41;;;4.02;100.00
3796;BME280;1913;50.660;7.834;2023-02-20T01:35:17;98101.59;;;4.07;100.00
3796;BME280;1913;50.660;7.834;2023-02-20T01:37:43;98106.53;;;4.11;100.00
3796;BME280;1913;50.660;7.834;2023-02-20T01:40:15;98105.19;;;3.97;100.00
3796;BME280;1913;50.660;7.834;2023-02-20T01:42:40;98109.81;;;4.13;100.00
3796;BME280;1913;50.660;7.834;2023-02-20T01:47:51;98108.88;;;4.14;100.00
3796;BME280;1913;50.660;7.834;2023-02-20T01:50:19;98105.28;;;4.05;100.00
3796;BME280;1913;50.660;7.834;2023-02-20T01:52:49;98100.09;;;4.05;100.00
3796;BME280;1913;50.660;7.834;2023-02-20T01:55:20;98093.25;;;4.04;100.00
3796;BME280;1913;50.660;7.834;2023-02-20T01:58:25;98099.97;;;4.06;100.00
3796;BME280;1913;50.660;7.834;2023-02-20T02:00:43;98083.25;;;4.09;100.00
3796;BME280;1913;50.660;7.834;2023-02-20T02:03:12;98089.97;;;4.12;100.00
3796;BME280;1913;50.660;7.834;2023-02-20T02:05:41;98086.81;;;4.18;100.00
3796;BME280;1913;50.660;7.834;2023-02-20T02:08:10;98085.72;;;4.20;100.00
3796;BME280;1913;50.660;7.834;2023-02-20T02:10:49;98085.28;;;4.25;100.00
3796;BME280;1913;50.660;7.834;2023-02-20T02:13:17;98072.00;;;4.28;100.00
3796;BME280;1913;50.660;7.834;2023-02-20T02:15:42;98075.16;;;4.31;100.00
3796;BME280;1913;50.660;7.834;2023-02-20T02:18:25;98071.28;;;4.45;100.00
3796;BME280;1913;50.660;7.834;2023-02-20T02:39:55;98058.91;;;4.57;100.00
3796;BME280;1913;50.660;7.834;2023-02-20T02:50:19;98051.25;;;4.55;100.00
3796;BME280;1913;50.660;7.834;2023-02-20T02:52:49;98059.44;;;4.61;100.00
3796;BME280;1913;50.660;7.834;2023-02-20T02:55:21;98061.25;;;4.50;100.00
3796;BME280;1913;50.660;7.834;2023-02-20T02:57:47;98051.94;;;4.48;100.00
3796;BME280;1913;50.660;7.834;2023-02-20T03:00:28;98050.28;;;4.47;100.00
3796;BME280;1913;50.660;7.834;2023-02-20T03:05:34;98055.13;;;4.42;100.00
3796;BME280;1913;50.660;7.834;2023-02-20T03:08:44;98052.09;;;4.37;100.00
3796;BME280;1913;50.660;7.834;2023-02-20T03:11:14;98047.63;;;4.29;100.00
3796;BME280;1913;50.660;7.834;2023-02-20T03:13:58;98053.25;;;4.24;100.00
3796;BME280;1913;50.660;7.834;2023-02-20T03:19:35;98046.16;;;4.17;100.00
3796;BME280;1913;50.660;7.834;2023-02-20T03:22:04;98033.28;;;4.15;100.00
3796;BME280;1913;50.660;7.834;2023-02-20T03:24:33;98038.09;;;4.10;100.00
3796;BME280;1913;50.660;7.834;2023-02-20T03:27:24;98015.94;;;4.06;100.00
3796;BME280;1913;50.660;7.834;2023-02-20T03:29:55;98010.88;;;3.95;100.00
3796;BME280;1913;50.660;7.834;2023-02-20T03:32:23;98008.78;;;4.08;100.00
3796;BME280;1913;50.660;7.834;2023-02-20T03:35:09;98004.44;;;3.99;100.00
3796;BME280;1913;50.660;7.834;2023-02-20T03:37:55;98003.47;;;4.00;100.00
3796;BME280;1913;50.660;7.834;2023-02-20T03:40:40;98002.78;;;3.98;100.00
3796;BME280;1913;50.660;7.834;2023-02-20T03:43:26;98009.78;;;3.97;100.00
3796;BME280;1913;50.660;7.834;2023-02-20T03:46:03;98003.59;;;3.98;100.00
3796;BME280;1913;50.660;7.834;2023-02-20T03:48:39;98006.78;;;3.92;100.00
3796;BME280;1913;50.660;7.834;2023-02-20T03:51:06;98012.09;;;3.91;100.00
3796;BME280;1913;50.660;7.834;2023-02-20T03:53:39;98015.66;;;3.99;100.00
3796;BME280;1913;50.660;7.834;2023-02-20T03:56:09;98008.69;;;3.90;100.00
3796;BME280;1913;50.660;7.834;2023-02-20T03:58:37;98011.72;;;3.86;100.00
3796;BME280;1913;50.660;7.834;2023-02-20T04:01:07;97999.97;;;3.81;100.00
3796;BME280;1913;50.660;7.834;2023-02-20T04:03:39;98002.03;;;3.78;100.00
3796;BME280;1913;50.660;7.834;2023-02-20T04:06:07;97997.09;;;3.75;100.00
3796;BME280;1913;50.660;7.834;2023-02-20T04:08:43;98002.31;;;3.65;100.00
3796;BME280;1913;50.660;7.834;2023-02-20T04:11:20;98000.53;;;3.36;100.00
3796;BME280;1913;50.660;7.834;2023-02-20T04:13:49;97991.13;;;3.35;100.00
3796;BME280;1913;50.660;7.834;2023-02-20T04:16:16;97999.31;;;3.31;100.00
3796;BME280;1913;50.660;7.834;2023-02-20T04:18:42;97996.97;;;3.18;100.00
3796;BME280;1913;50.660;7.834;2023-02-20T04:21:32;98003.41;;;3.04;100.00
3796;BME280;1913;50.660;7.834;2023-02-20T04:24:13;97991.63;;;3.00;100.00
3796;BME280;1913;50.660;7.834;2023-02-20T04:26:40;97996.94;;;2.89;100.00
3796;BME280;1913;50.660;7.834;2023-02-20T04:29:06;97988.19;;;2.80;100.00
3796;BME280;1913;50.660;7.834;2023-02-20T04:31:32;97987.50;;;2.78;100.00
3796;BME280;1913;50.660;7.834;2023-02-20T04:33:58;97994.47;;;2.78;100.00
3796;BME280;1913;50.660;7.834;2023-02-20T04:36:24;97994.47;;;2.78;100.00
3796;BME280;1913;50.660;7.834;2023-02-20T04:38:49;97994.19;;;2.71;100.00
3796;BME280;1913;50.660;7.834;2023-02-20T04:41:15;97996.22;;;2.68;100.00
3796;BME280;1913;50.660;7.834;2023-02-20T04:43:40;97995.78;;;2.62;100.00
3796;BME280;1913;50.660;7.834;2023-02-20T04:46:06;97992.34;;;2.52;100.00
3796;BME280;1913;50.660;7.834;2023-02-20T04:48:31;97991.56;;;2.61;100.00
3796;BME280;1913;50.660;7.834;2023-02-20T04:50:57;97994.81;;;2.54;100.00
3796;BME280;1913;50.660;7.834;2023-02-20T04:53:22;97998.75;;;2.38;100.00
3796;BME280;1913;50.660;7.834;2023-02-20T04:55:48;97992.13;;;2.34;100.00
3796;BME280;1913;50.660;7.834;2023-02-20T04:58:13;97999.09;;;2.24;100.00
3796;BME280;1913;50.660;7.834;2023-02-20T05:00:38;98001.31;;;2.38;100.00
3796;BME280;1913;50.660;7.834;2023-02-20T05:03:07;98005.66;;;2.28;100.00
3796;BME280;1913;50.660;7.834;2023-02-20T05:05:32;97999.34;;;2.21;100.00
3796;BME280;1913;50.660;7.834;2023-02-20T05:08:04;98008.75;;;2.22;100.00
3796;BME280;1913;50.660;7.834;2023-02-20T05:10:34;98003.00;;;2.19;100.00
3796;BME280;1913;50.660;7.834;2023-02-20T05:13:00;97999.19;;;2.23;100.00
3796;BME280;1913;50.660;7.834;2023-02-20T05:15:27;97997.47;;;2.33;100.00
3796;BME280;1913;50.660;7.834;2023-02-20T05:17:52;97997.72;;;2.30;100.00
3796;BME280;1913;50.660;7.834;2023-02-20T05:20:18;97996.25;;;2.37;100.00
3796;BME280;1913;50.660;7.834;2023-02-20T05:22:45;97988.22;;;2.40;100.00
3796;BME280;1913;50.660;7.834;2023-02-20T05:25:11;97985.09;;;2.46;100.00
3796;BME280;1913;50.660;7.834;2023-02-20T05:27:38;97979.38;;;2.52;100.00
3796;BME280;1913;50.660;7.834;2023-02-20T05:30:05;97979.09;;;2.55;100.00
3796;BME280;1913;50.660;7.834;2023-02-20T05:32:31;97975.56;;;2.56;100.00
3796;BME280;1913;50.660;7.834;2023-02-20T05:34:57;97970.38;;;2.66;100.00
3796;BME280;1913;50.660;7.834;2023-02-20T05:37:26;97961.13;;;2.73;100.00
3796;BME280;1913;50.660;7.834;2023-02-20T05:39:52;97964.69;;;2.82;100.00
3796;BME280;1913;50.660;7.834;2023-02-20T05:42:18;97958.84;;;2.90;100.00
3796;BME280;1913;50.660;7.834;2023-02-20T05:44:45;97950.06;;;2.91;100.00
3796;BME280;1913;50.660;7.834;2023-02-20T05:47:11;97947.91;;;2.96;100.00
3796;BME280;1913;50.660;7.834;2023-02-20T05:49:36;97946.69;;;3.00;100.00
3796;BME280;1913;50.660;7.834;2023-02-20T05:52:03;97945.31;;;3.05;100.00
3796;BME280;1913;50.660;7.834;2023-02-20T05:54:36;97944.09;;;3.00;100.00
3796;BME280;1913;50.660;7.834;2023-02-20T05:57:02;97935.47;;;2.99;100.00
3796;BME280;1913;50.660;7.834;2023-02-20T05:59:27;97930.13;;;3.01;100.00
3796;BME280;1913;50.660;7.834;2023-02-20T06:01:57;97935.06;;;3.04;100.00
3796;BME280;1913;50.660;7.834;2023-02-20T06:04:23;97931.22;;;2.98;100.00
3796;BME280;1913;50.660;7.834;2023-02-20T06:06:48;97936.56;;;2.97;100.00
3796;BME280;1913;50.660;7.834;2023-02-20T06:09:13;97934.75;;;2.87;100.00
3796;BME280;1913;50.660;7.834;2023-02-20T06:12:00;97933.84;;;2.88;100.00
3796;BME280;1913;50.660;7.834;2023-02-20T06:14:25;97937.38;;;2.97;100.00
3796;BME280;1913;50.660;7.834;2023-02-20T06:16:52;97946.25;;;2.85;100.00
3796;BME280;1913;50.660;7.834;2023-02-20T06:19:22;97941.47;;;2.90;100.00
3796;BME280;1913;50.660;7.834;2023-02-20T06:21:49;97940.22;;;2.84;100.00
3796;BME280;1913;50.660;7.834;2023-02-20T06:24:15;97944.06;;;2.90;100.00
3796;BME280;1913;50.660;7.834;2023-02-20T06:26:41;97946.13;;;2.86;100.00
3796;BME280;1913;50.660;7.834;2023-02-20T06:29:07;97954.06;;;2.85;100.00
3796;BME280;1913;50.660;7.834;2023-02-20T06:31:32;97953.50;;;2.81;100.00
3796;BME280;1913;50.660;7.834;2023-02-20T06:33:58;97954.31;;;2.82;100.00
3796;BME280;1913;50.660;7.834;2023-02-20T06:36:27;97953.09;;;2.86;100.00
3796;BME280;1913;50.660;7.834;2023-02-20T06:38:53;97959.78;;;2.88;100.00
3796;BME280;1913;50.660;7.834;2023-02-20T06:41:19;97955.53;;;2.87;100.00
3796;BME280;1913;50.660;7.834;2023-02-20T06:43:44;97960.47;;;2.91;100.00
3796;BME280;1913;50.660;7.834;2023-02-20T06:46:10;97953.09;;;2.86;100.00
3796;BME280;1913;50.660;7.834;2023-02-20T06:48:47;97955.16;;;2.92;100.00
3796;BME280;1913;50.660;7.834;2023-02-20T06:51:18;97960.75;;;2.97;100.00
3796;BME280;1913;50.660;7.834;2023-02-20T06:53:44;97962.94;;;2.92;100.00
3796;BME280;1913;50.660;7.834;2023-02-20T06:56:13;97959.78;;;2.98;100.00
3796;BME280;1913;50.660;7.834;2023-02-20T06:58:40;97950.50;;;2.96;100.00
3796;BME280;1913;50.660;7.834;2023-02-20T07:01:05;97951.31;;;3.06;100.00
3796;BME280;1913;50.660;7.834;2023-02-20T07:03:31;97953.38;;;3.12;100.00
3796;BME280;1913;50.660;7.834;2023-02-20T07:05:56;97954.06;;;3.14;100.00
3796;BME280;1913;50.660;7.834;2023-02-20T07:08:21;97951.75;;;3.21;100.00
3796;BME280;1913;50.660;7.834;2023-02-20T07:10:47;97954.19;;;3.32;100.00
3796;BME280;1913;50.660;7.834;2023-02-20T07:13:12;97961.84;;;3.43;100.00
3796;BME280;1913;50.660;7.834;2023-02-20T07:15:37;97956.66;;;3.53;100.00
3796;BME280;1913;50.660;7.834;2023-02-20T07:18:03;97954.97;;;3.62;100.00
3796;BME280;1913;50.660;7.834;2023-02-20T07:20:28;97957.22;;;3.94;100.00
3796;BME280;1913;50.660;7.834;2023-02-20T07:22:54;97945.53;;;4.07;100.00
3796;BME280;1913;50.660;7.834;2023-02-20T07:25:20;97946.78;;;4.13;100.00
3796;BME280;1913;50.660;7.834;2023-02-20T07:27:45;97945.53;;;4.07;100.00
3796;BME280;1913;50.660;7.834;2023-02-20T07:30:11;97935.28;;;4.06;100.00
3796;BME280;1913;50.660;7.834;2023-02-20T07:32:37;97941.31;;;4.06;100.00
3796;BME280;1913;50.660;7.834;2023-02-20T07:35:02;97939.75;;;4.23;100.00
3796;BME280;1913;50.660;7.834;2023-02-20T07:37:28;97941.09;;;4.27;100.00
3796;BME280;1913;50.660;7.834;2023-02-20T07:39:53;97939.34;;;4.46;100.00
3796;BME280;1913;50.660;7.834;2023-02-20T07:42:19;97933.13;;;4.56;100.00
3796;BME280;1913;50.660;7.834;2023-02-20T07:44:44;97930.69;;;4.73;100.00
3796;BME280;1913;50.660;7.834;2023-02-20T07:47:14;97929.81;;;4.82;100.00
3796;BME280;1913;50.660;7.834;2023-02-20T07:49:39;97928.63;;;4.94;100.00
3796;BME280;1913;50.660;7.834;2023-02-20T07:52:04;97928.25;;;4.89;100.00
3796;BME280;1913;50.660;7.834;2023-02-20T07:54:30;97934.19;;;4.82;100.00
3796;BME280;1913;50.660;7.834;2023-02-20T07:56:55;97932.88;;;4.77;100.00
3796;BME280;1913;50.660;7.834;2023-02-20T07:59:21;97934.84;;;4.84;100.00
3796;BME280;1913;50.660;7.834;2023-02-20T08:01:47;97925.94;;;5.04;100.00
3796;BME280;1913;50.660;7.834;2023-02-20T08:04:13;97918.34;;;5.11;100.00
3796;BME280;1913;50.660;7.834;2023-02-20T08:06:38;97917.38;;;5.12;100.00
3796;BME280;1913;50.660;7.834;2023-02-20T08:09:04;97916.53;;;5.29;100.00
3796;BME280;1913;50.660;7.834;2023-02-20T08:11:33;97921.28;;;5.51;100.00
3796;BME280;1913;50.660;7.834;2023-02-20T08:13:59;97931.00;;;5.67;100.00
3796;BME280;1913;50.660;7.834;2023-02-20T08:16:24;97924.88;;;5.76;100.00
3796;BME280;1913;50.660;7.834;2023-02-20T08:18:51;97927.16;;;5.80;100.00
3796;BME280;1913;50.660;7.834;2023-02-20T08:21:17;97921.69;;;5.65;100.00
3796;BME280;1913;50.660;7.834;2023-02-20T08:23:42;97922.59;;;5.99;100.00
3796;BME280;1913;50.660;7.834;2023-02-20T08:26:08;97926.53;;;5.86;100.00
3796;BME280;1913;50.660;7.834;2023-02-20T08:28:34;97925.94;;;6.18;100.00
3796;BME280;1913;50.660;7.834;2023-02-20T08:30:59;97927.19;;;6.48;100.00
3796;BME280;1913;50.660;7.834;2023-02-20T08:33:25;97923.91;;;7.13;100.00
3796;BME280;1913;50.660;7.834;2023-02-20T08:35:50;97926.63;;;7.85;100.00
3796;BME280;1913;50.660;7.834;2023-02-20T08:38:24;97931.59;;;8.67;100.00
3796;BME280;1913;50.660;7.834;2023-02-20T08:40:50;97937.72;;;8.90;100.00
3796;BME280;1913;50.660;7.834;2023-02-20T08:43:16;97932.81;;;9.33;100.00
3796;BME280;1913;50.660;7.834;2023-02-20T08:45:41;97931.03;;;9.48;100.00
3796;BME280;1913;50.660;7.834;2023-02-20T08:48:07;97927.41;;;9.87;100.00
3796;BME280;1913;50.660;7.834;2023-02-20T08:50:33;97927.41;;;9.72;100.00
3796;BME280;1913;50.660;7.834;2023-02-20T08:52:58;97930.81;;;9.58;100.00
3796;BME280;1913;50.660;7.834;2023-02-20T08:55:24;97924.41;;;9.75;100.00
3796;BME280;1913;50.660;7.834;2023-02-20T08:57:49;97927.41;;;9.87;100.00
3796;BME280;1913;50.660;7.834;2023-02-20T09:00:16;97924.63;;;10.03;100.00
3796;BME280;1913;50.660;7.834;2023-02-20T09:02:45;97928.06;;;10.19;100.00
3796;BME280;1913;50.660;7.834;2023-02-20T09:05:11;97929.09;;;9.65;100.00
3796;BME280;1913;50.660;7.834;2023-02-20T09:07:36;97926.47;;;9.04;100.00
3796;BME280;1913;50.660;7.834;2023-02-20T09:10:02;97927.78;;;9.99;100.00
3796;BME280;1913;50.660;7.834;2023-02-20T09:12:28;97924.31;;;9.69;100.00
3796;BME280;1913;50.660;7.834;2023-02-20T09:14:55;97927.06;;;10.35;100.00
3796;BME280;1913;50.660;7.834;2023-02-20T09:17:20;97922.00;;;10.18;100.00
3796;BME280;1913;50.660;7.834;2023-02-20T09:19:46;97927.75;;;10.73;100.00
3796;BME280;1913;50.660;7.834;2023-02-20T09:22:11;97929.81;;;11.35;100.00
3796;BME280;1913;50.660;7.834;2023-02-20T09:24:37;97935.16;;;11.98;100.00
3796;BME280;1913;50.660;7.834;2023-02-20T09:27:03;97932.75;;;11.75;88.85
3796;BME280;1913;50.660;7.834;2023-02-20T09:29:30;97932.91;;;11.24;93.01
3796;BME280;1913;50.660;7.834;2023-02-20T09:31:56;97935.38;;;11.25;100.00
3796;BME280;1913;50.660;7.834;2023-02-20T09:34:22;97939.06;;;11.53;97.60
3796;BME280;1913;50.660;7.834;2023-02-20T09:36:47;97935.88;;;11.36;98.02
3796;BME280;1913;50.660;7.834;2023-02-20T09:39:13;97941.03;;;11.72;98.72
3796;BME280;1913;50.660;7.834;2023-02-20T09:44:28;97924.59;;;11.70;89.11
3796;BME280;1913;50.660;7.834;2023-02-20T09:46:59;97929.78;;;12.13;88.54
3796;BME280;1913;50.660;7.834;2023-02-20T09:49:30;97922.84;;;11.27;94.23
3796;BME280;1913;50.660;7.834;2023-02-20T09:52:01;97929.53;;;11.30;100.00
3796;BME280;1913;50.660;7.834;2023-02-20T09:54:35;97927.47;;;11.47;91.38
3796;BME280;1913;50.660;7.834;2023-02-20T09:57:04;97926.31;;;11.28;96.12
3796;BME280;1913;50.660;7.834;2023-02-20T09:59:37;97919.72;;;11.88;99.52
3796;BME280;1913;50.660;7.834;2023-02-20T10:02:23;97924.91;;;11.82;84.91
3796;BME280;1913;50.660;7.834;2023-02-20T10:04:53;97923.78;;;11.69;83.93
3796;BME280;1913;50.660;7.834;2023-02-20T10:07:29;97930.97;;;12.04;86.20
3796;BME280;1913;50.660;7.834;2023-02-20T10:09:57;97919.59;;;11.25;91.33
3796;BME280;1913;50.660;7.834;2023-02-20T10:17:41;97914.38;;;11.54;89.83
3796;BME280;1913;50.660;7.834;2023-02-20T10:20:16;97921.19;;;11.97;94.38
3796;BME280;1913;50.660;7.834;2023-02-20T10:22:48;97911.50;;;12.05;90.17
3796;BME280;1913;50.660;7.834;2023-02-20T10:25:29;97921.41;;;11.46;94.01
3796;BME280;1913;50.660;7.834;2023-02-20T10:35:38;97906.72;;;12.69;95.57
3796;BME280;1913;50.660;7.834;2023-02-20T10:38:09;97904.97;;;12.97;79.94
3796;BME280;1913;50.660;7.834;2023-02-20T10:40:44;97905.91;;;12.69;82.82
3796;BME280;1913;50.660;7.834;2023-02-20T10:43:24;97909.50;;;12.07;86.99
3796;BME280;1913;50.660;7.834;2023-02-20T10:48:34;97906.97;;;12.81;86.88
3796;BME280;1913;50.660;7.834;2023-02-20T10:51:20;97908.94;;;12.18;86.84
3796;BME280;1913;50.660;7.834;2023-02-20T10:59:22;97889.31;;;12.75;87.17
3796;BME280;1913;50.660;7.834;2023-02-20T11:01:54;97881.66;;;13.07;81.20
3796;BME280;1913;50.660;7.834;2023-02-20T11:06:58;97886.69;;;12.82;73.57
3796;BME280;1913;50.660;7.834;2023-02-20T11:09:25;97884.69;;;13.97;81.09
3796;BME280;1913;50.660;7.834;2023-02-20T11:11:52;97887.00;;;13.53;68.34
3796;BME280;1913;50.660;7.834;2023-02-20T11:14:46;97883.94;;;13.70;77.85
3796;BME280;1913;50.660;7.834;2023-02-20T11:17:19;97874.19;;;13.70;66.83
3796;BME280;1913;50.660;7.834;2023-02-20T11:19:50;97876.59;;;13.78;67.99
3796;BME280;1913;50.660;7.834;2023-02-20T11:22:18;97873.72;;;14.00;69.17
3796;BME280;1913;50.660;7.834;2023-02-20T11:25:16;97867.84;;;14.94;67.01
3796;BME280;1913;50.660;7.834;2023-02-20T11:27:46;97869.31;;;15.40;63.35
3796;BME280;1913;50.660;7.834;2023-02-20T11:33:17;97879.59;;;15.05;61.68
3796;BME280;1913;50.660;7.834;2023-02-20T11:35:45;97877.59;;;15.25;60.73
3796;BME280;1913;50.660;7.834;2023-02-20T11:43:22;97848.53;;;14.55;56.24
3796;BME280;1913;50.660;7.834;2023-02-20T11:45:48;97850.09;;;14.70;57.77
3796;BME280;1913;50.660;7.834;2023-02-20T11:48:16;97846.56;;;14.76;58.01
3796;BME280;1913;50.660;7.834;2023-02-20T11:50:44;97845.28;;;14.53;55.89
3796;BME280;1913;50.660;7.834;2023-02-20T11:56:11;97838.75;;;15.19;54.31
3796;BME280;1913;50.660;7.834;2023-02-20T11:58:37;97834.41;;;15.50;54.44
3796;BME280;1913;50.660;7.834;2023-02-20T12:01:03;97820.69;;;15.60;57.35
3796;BME280;1913;50.660;7.834;2023-02-20T12:03:31;97822.44;;;15.91;53.51
3796;BME280;1913;50.660;7.834;2023-02-20T12:06:00;97802.16;;;15.78;52.93
3796;BME280;1913;50.660;7.834;2023-02-20T12:08:52;97808.06;;;16.17;51.20
3796;BME280;1913;50.660;7.834;2023-02-20T12:11:22;97801.34;;;15.96;53.96
3796;BME280;1913;50.660;7.834;2023-02-20T12:13:50;97806.81;;;16.19;52.10
3796;BME280;1913;50.660;7.834;2023-02-20T12:21:30;97800.38;;;15.28;54.94
3796;BME280;1913;50.660;7.834;2023-02-20T12:24:06;97783.41;;;14.48;54.33
3796;BME280;1913;50.660;7.834;2023-02-20T12:26:45;97790.56;;;15.11;57.52
3796;BME280;1913;50.660;7.834;2023-02-20T12:29:40;97786.94;;;15.05;55.84
3796;BME280;1913;50.660;7.834;2023-02-20T12:32:38;97772.78;;;15.18;54.13
3796;BME280;1913;50.660;7.834;2023-02-20T12:35:32;97776.34;;;14.80;57.07
3796;BME280;1913;50.660;7.834;2023-02-20T12:41:40;97766.56;;;15.30;63.08
3796;BME280;1913;50.660;7.834;2023-02-20T12:44:43;97744.56;;;14.55;60.13
3796;BME280;1913;50.660;7.834;2023-02-20T12:47:34;97737.06;;;14.52;61.76
3796;BME280;1913;50.660;7.834;2023-02-20T12:56:06;97725.84;;;15.06;63.37
3796;BME280;1913;50.660;7.834;2023-02-20T13:01:16;97724.84;;;14.51;64.28
3796;BME280;1913;50.660;7.834;2023-02-20T13:11:42;97693.63;;;14.66;65.27
3796;BME280;1913;50.660;7.834;2023-02-20T13:16:43;97680.75;;;14.13;64.10
3796;BME280;1913;50.660;7.834;2023-02-20T13:19:26;97680.06;;;13.86;67.94
3796;BME280;1913;50.660;7.834;2023-02-20T13:21:55;97687.81;;;14.19;66.59
3796;BME280;1913;50.660;7.834;2023-02-20T13:29:20;97682.13;;;15.77;60.81
3796;BME280;1913;50.660;7.834;2023-02-20T13:31:57;97678.97;;;15.69;60.65
3796;BME280;1913;50.660;7.834;2023-02-20T13:34:37;97677.56;;;14.86;62.57
3796;BME280;1913;50.660;7.834;2023-02-20T13:37:04;97674.56;;;14.82;61.96
3796;BME280;1913;50.660;7.834;2023-02-20T13:39:49;97684.78;;;14.47;64.82
3796;BME280;1913;50.660;7.834;2023-02-20T13:42:32;97671.03;;;13.62;71.02
3796;BME280;1913;50.660;7.834;2023-02-20T13:44:58;97654.03;;;13.51;76.41
3796;BME280;1913;50.660;7.834;2023-02-20T13:47:31;97663.78;;;13.44;78.35
3796;BME280;1913;50.660;7.834;2023-02-20T13:49:59;97668.41;;;13.55;79.70
3796;BME280;1913;50.660;7.834;2023-02-20T13:55:39;97656.38;;;13.73;79.87
3796;BME280;1913;50.660;7.834;2023-02-20T13:57:52;97650.63;;;13.82;75.87
3796;BME280;1913;50.660;7.834;2023-02-20T14:03:19;97636.84;;;13.29;89.74
3796;BME280;1913;50.660;7.834;2023-02-20T14:05:45;97641.34;;;13.02;92.37
3796;BME280;1913;50.660;7.834;2023-02-20T14:08:20;97634.38;;;13.40;97.80
3796;BME280;1913;50.660;7.834;2023-02-20T14:10:46;97639.19;;;13.95;93.96
3796;BME280;1913;50.660;7.834;2023-02-20T14:13:19;97633.34;;;13.86;84.11
3796;BME280;1913;50.660;7.834;2023-02-20T14:15:56;97627.38;;;13.98;81.57
3796;BME280;1913;50.660;7.834;2023-02-20T14:18:26;97621.38;;;13.84;78.45
3796;BME280;1913;50.660;7.834;2023-02-20T14:21:03;97623.06;;;14.03;82.12
3796;BME280;1913;50.660;7.834;2023-02-20T14:23:29;97622.34;;;14.21;78.24
3796;BME280;1913;50.660;7.834;2023-02-20T14:26:04;97614.69;;;14.13;74.42
3796;BME280;1913;50.660;7.834;2023-02-20T14:28:32;97612.28;;;14.30;75.12
3796;BME280;1913;50.660;7.834;2023-02-20T14:33:29;97612.41;;;15.28;71.31
3796;BME280;1913;50.660;7.834;2023-02-20T14:39:18;97620.63;;;15.39;69.70
3796;BME280;1913;50.660;7.834;2023-02-20T14:42:00;97621.94;;;15.29;71.95
3796;BME280;1913;50.660;7.834;2023-02-20T14:44:28;97618.25;;;14.94;75.40
3796;BME280;1913;50.660;7.834;2023-02-20T14:47:07;97609.59;;;15.42;71.29
3796;BME280;1913;50.660;7.834;2023-02-20T14:49:33;97608.06;;;15.64;72.35
3796;BME280;1913;50.660;7.834;2023-02-20T14:54:34;97621.94;;;15.48;75.00
3796;BME280;1913;50.660;7.834;2023-02-20T14:57:00;97613.63;;;14.89;75.91
3796;BME280;1913;50.660;7.834;2023-02-20T15:02:15;97578.25;;;14.65;86.55
3796;BME280;1913;50.660;7.834;2023-02-20T15:04:52;97581.72;;;14.16;91.22
3796;BME280;1913;50.660;7.834;2023-02-20T15:07:20;97574.75;;;14.21;93.84
3796;BME280;1913;50.660;7.834;2023-02-20T15:09:49;97578.56;;;14.57;90.37
3796;BME280;1913;50.660;7.834;2023-02-20T15:12:23;97588.78;;;14.90;91.33
3796;BME280;1913;50.660;7.834;2023-02-20T15:14:59;97581.16;;;15.00;87.81
3796;BME280;1913;50.660;7.834;2023-02-20T15:17:34;97583.84;;;14.57;92.13
3796;BME280;1913;50.660;7.834;2023-02-20T15:20:36;97589.44;;;14.67;93.55
3796;BME280;1913;50.660;7.834;2023-02-20T15:23:09;97587.75;;;14.23;94.07
3796;BME280;1913;50.660;7.834;2023-02-20T15:25:35;97586.25;;;14.33;96.96
3796;BME280;1913;50.660;7.834;2023-02-20T15:30:29;97572.31;;;13.70;100.00
3796;BME280;1913;50.660;7.834;2023-02-20T15:32:54;97578.91;;;13.47;100.00
3796;BME280;1913;50.660;7.834;2023-02-20T15:35:24;97576.50;;;13.39;100.00
3796;BME280;1913;50.660;7.834;2023-02-20T15:37:54;97560.00;;;12.99;100.00
3796;BME280;1913;50.660;7.834;2023-02-20T15:40:29;97559.19;;;12.98;100.00